sensor_id;sensor_type;location;lat;lon;timestamp;P1;durP1;ratioP1;P2;durP2;ratioP2
29172;SDS011;16223;47.966;-1.616;2022-09-01T08:47:10;14.9125;;;10.962499999999999;;
29172;SDS011;16223;47.966;-1.616;2022-09-01T08:48:20;12.3125;;;7.575;;
29172;SDS011;16223;47.966;-1.616;2022-09-01T08:49:11;10.8375;;;8.3125;;
29172;SDS011;16223;47.966;-1.616;2022-09-01T08:50:08;14.7;;;8.7625;;
29172;SDS011;16223;47.966;-1.616;2022-09-01T08:51:11;8.337499999999999;;;6.449999999999999;;
29172;SDS011;16223;47.966;-1.616;2022-09-01T08:52:10;22.7625;;;8.0625;;
29172;SDS011;16223;47.966;-1.616;2022-09-01T08:53:11;12.600000000000001;;;8.5;;
29172;SDS011;16223;47.966;-1.616;2022-09-01T08:54:09;12.3625;;;8.5625;;
29172;SDS011;16223;47.966;-1.616;2022-09-01T08:55:11;12.537500000000001;;;9.0;;
29172;SDS011;16223;47.966;-1.616;2022-09-01T08:56:08;16.725;;;10.3125;;
29172;SDS011;16223;47.966;-1.616;2022-09-01T08:57:10;9.9875;;;7.55;;
29172;SDS011;16223;47.966;-1.616;2022-09-01T08:58:08;8.2;;;6.8375;;
29172;SDS011;16223;47.966;-1.616;2022-09-01T08:59:08;10.774999999999999;;;8.925;;
29172;SDS011;16223;47.966;-1.616;2022-09-01T09:00:09;15.399999999999999;;;7.637500000000001;;
29172;SDS011;16223;47.966;-1.616;2022-09-01T09:01:10;12.2;;;8.6375;;
29172;SDS011;16223;47.966;-1.616;2022-09-01T09:02:14;9.8125;;;7.612500000000001;;
29172;SDS011;16223;47.966;-1.616;2022-09-01T09:03:11;8.525;;;7.1625;;
29172;SDS011;16223;47.966;-1.616;2022-09-01T09:04:13;7.75;;;7.012499999999999;;
29172;SDS011;16223;47.966;-1.616;2022-09-01T09:05:14;12.137500000000001;;;9.462499999999999;;
29172;SDS011;16223;47.966;-1.616;2022-09-01T09:06:12;11.9625;;;7.937499999999999;;
29172;SDS011;16223;47.966;-1.616;2022-09-01T09:07:09;11.7125;;;8.9;;
29172;SDS011;16223;47.966;-1.616;2022-09-01T09:08:17;12.9875;;;9.1625;;
29172;SDS011;16223;47.966;-1.616;2022-09-01T09:09:09;9.775;;;8.1125;;
29172;SDS011;16223;47.966;-1.616;2022-09-01T09:10:09;11.825;;;7.862499999999999;;
29172;SDS011;16223;47.966;-1.616;2022-09-01T09:11:12;11.8;;;9.0625;;
29172;SDS011;16223;47.966;-1.616;2022-09-01T09:12:14;11.0;;;8.925;;
29172;SDS011;16223;47.966;-1.616;2022-09-01T09:13:09;9.0125;;;7.450000000000001;;
29172;SDS011;16223;47.966;-1.616;2022-09-01T09:14:10;13.2625;;;8.175;;
29172;SDS011;16223;47.966;-1.616;2022-09-01T09:15:12;14.575;;;8.275;;
29172;SDS011;16223;47.966;-1.616;2022-09-01T09:16:08;17.9;;;13.025;;
29172;SDS011;16223;47.966;-1.616;2022-09-01T09:17:08;10.712499999999999;;;8.4875;;
29172;SDS011;16223;47.966;-1.616;2022-09-01T09:18:12;12.0;;;8.8875;;
29172;SDS011;16223;47.966;-1.616;2022-09-01T09:19:09;10.712499999999999;;;8.9625;;
29172;SDS011;16223;47.966;-1.616;2022-09-01T09:20:08;20.0375;;;11.05;;
29172;SDS011;16223;47.966;-1.616;2022-09-01T09:21:11;19.575;;;8.0875;;
29172;SDS011;16223;47.966;-1.616;2022-09-01T09:22:09;16.325000000000003;;;9.787500000000001;;
29172;SDS011;16223;47.966;-1.616;2022-09-01T09:23:11;12.125;;;8.2375;;
29172;SDS011;16223;47.966;-1.616;2022-09-01T09:24:09;15.075;;;8.55;;
29172;SDS011;16223;47.966;-1.616;2022-09-01T09:25:09;9.8125;;;7.8374999999999995;;
29172;SDS011;16223;47.966;-1.616;2022-09-01T09:26:08;19.5375;;;8.325;;
29172;SDS011;16223;47.966;-1.616;2022-09-01T09:27:08;14.425;;;8.162500000000001;;
29172;SDS011;16223;47.966;-1.616;2022-09-01T09:28:08;11.675;;;8.725;;
29172;SDS011;16223;47.966;-1.616;2022-09-01T09:29:08;15.899999999999999;;;9.1625;;
29172;SDS011;16223;47.966;-1.616;2022-09-01T09:30:09;12.775;;;8.9875;;
29172;SDS011;16223;47.966;-1.616;2022-09-01T09:31:25;13.9625;;;10.9875;;
29172;SDS011;16223;47.966;-1.616;2022-09-01T09:32:08;13.2875;;;9.4125;;
29172;SDS011;16223;47.966;-1.616;2022-09-01T09:33:08;13.2375;;;9.787500000000001;;
29172;SDS011;16223;47.966;-1.616;2022-09-01T09:34:15;17.6125;;;9.7625;;
29172;SDS011;16223;47.966;-1.616;2022-09-01T09:35:16;14.299999999999999;;;10.7375;;
29172;SDS011;16223;47.966;-1.616;2022-09-01T09:36:15;13.1125;;;8.3625;;
29172;SDS011;16223;47.966;-1.616;2022-09-01T09:37:16;16.799999999999997;;;11.175;;
29172;SDS011;16223;47.966;-1.616;2022-09-01T09:38:18;16.65;;;9.9875;;
29172;SDS011;16223;47.966;-1.616;2022-09-01T09:39:12;18.012500000000003;;;11.025;;
29172;SDS011;16223;47.966;-1.616;2022-09-01T09:40:10;20.0375;;;10.025;;
29172;SDS011;16223;47.966;-1.616;2022-09-01T09:41:13;15.975;;;9.6625;;
29172;SDS011;16223;47.966;-1.616;2022-09-01T09:42:09;14.8;;;11.225000000000001;;
29172;SDS011;16223;47.966;-1.616;2022-09-01T09:43:08;13.7125;;;10.962499999999999;;
29172;SDS011;16223;47.966;-1.616;2022-09-01T09:44:15;12.4375;;;9.4375;;
29172;SDS011;16223;47.966;-1.616;2022-09-01T09:45:14;21.8875;;;9.537500000000001;;
29172;SDS011;16223;47.966;-1.616;2022-09-01T09:46:26;18.924999999999997;;;9.125;;
29172;SDS011;16223;47.966;-1.616;2022-09-01T09:47:09;11.3625;;;9.2375;;
29172;SDS011;16223;47.966;-1.616;2022-09-01T09:48:09;12.6625;;;9.0375;;
29172;SDS011;16223;47.966;-1.616;2022-09-01T09:49:11;35.0625;;;10.3875;;
29172;SDS011;16223;47.966;-1.616;2022-09-01T09:50:12;13.975000000000001;;;9.375;;
29172;SDS011;16223;47.966;-1.616;2022-09-01T09:51:14;16.275;;;10.125;;
29172;SDS011;16223;47.966;-1.616;2022-09-01T09:52:13;9.475000000000001;;;8.524999999999999;;
29172;SDS011;16223;47.966;-1.616;2022-09-01T09:53:11;18.2875;;;9.649999999999999;;
29172;SDS011;16223;47.966;-1.616;2022-09-01T09:54:10;15.05;;;8.6375;;
29172;SDS011;16223;47.966;-1.616;2022-09-01T09:55:18;11.9625;;;9.174999999999999;;
29172;SDS011;16223;47.966;-1.616;2022-09-01T09:56:15;11.7125;;;8.0875;;
29172;SDS011;16223;47.966;-1.616;2022-09-01T09:57:09;10.7;;;8.7625;;
29172;SDS011;16223;47.966;-1.616;2022-09-01T09:58:09;20.8625;;;10.350000000000001;;
29172;SDS011;16223;47.966;-1.616;2022-09-01T09:59:18;14.162500000000001;;;8.9;;
29172;SDS011;16223;47.966;-1.616;2022-09-01T10:00:14;14.775;;;9.375;;
29172;SDS011;16223;47.966;-1.616;2022-09-01T10:01:10;14.1375;;;8.8125;;
29172;SDS011;16223;47.966;-1.616;2022-09-01T10:02:21;15.625;;;8.725;;
29172;SDS011;16223;47.966;-1.616;2022-09-01T10:03:09;15.124999999999998;;;9.3625;;
29172;SDS011;16223;47.966;-1.616;2022-09-01T10:04:08;15.549999999999999;;;10.350000000000001;;
29172;SDS011;16223;47.966;-1.616;2022-09-01T10:05:26;17.275;;;9.7;;
29172;SDS011;16223;47.966;-1.616;2022-09-01T10:06:11;10.1;;;7.6;;
29172;SDS011;16223;47.966;-1.616;2022-09-01T10:07:27;11.6625;;;9.024999999999999;;
29172;SDS011;16223;47.966;-1.616;2022-09-01T10:08:10;11.137500000000001;;;8.2125;;
29172;SDS011;16223;47.966;-1.616;2022-09-01T10:09:14;10.4375;;;6.9125;;
29172;SDS011;16223;47.966;-1.616;2022-09-01T10:10:25;10.962499999999999;;;7.65;;
29172;SDS011;16223;47.966;-1.616;2022-09-01T10:11:08;7.25;;;6.1125;;
29172;SDS011;16223;47.966;-1.616;2022-09-01T10:12:08;8.475;;;6.7749999999999995;;
29172;SDS011;16223;47.966;-1.616;2022-09-01T10:13:10;10.95;;;6.175000000000001;;
29172;SDS011;16223;47.966;-1.616;2022-09-01T10:14:10;7.4125;;;5.925;;
29172;SDS011;16223;47.966;-1.616;2022-09-01T10:15:09;7.8625;;;5.225;;
29172;SDS011;16223;47.966;-1.616;2022-09-01T10:16:11;8.775;;;5.5875;;
29172;SDS011;16223;47.966;-1.616;2022-09-01T10:17:10;7.4750000000000005;;;5.4125000000000005;;
29172;SDS011;16223;47.966;-1.616;2022-09-01T10:18:09;8.2125;;;6.1125;;
29172;SDS011;16223;47.966;-1.616;2022-09-01T10:19:10;13.9875;;;5.7625;;
29172;SDS011;16223;47.966;-1.616;2022-09-01T10:20:10;11.2;;;4.75;;
29172;SDS011;16223;47.966;-1.616;2022-09-01T10:21:10;7.4625;;;5.112500000000001;;
29172;SDS011;16223;47.966;-1.616;2022-09-01T10:22:09;5.6125;;;5.0874999999999995;;
29172;SDS011;16223;47.966;-1.616;2022-09-01T10:23:08;5.800000000000001;;;4.5875;;
29172;SDS011;16223;47.966;-1.616;2022-09-01T10:24:12;7.5;;;5.5125;;
29172;SDS011;16223;47.966;-1.616;2022-09-01T10:25:10;9.3875;;;4.6875;;
29172;SDS011;16223;47.966;-1.616;2022-09-01T10:26:10;8.7125;;;7.55;;
29172;SDS011;16223;47.966;-1.616;2022-09-01T10:27:09;9.0;;;7.55;;
29172;SDS011;16223;47.966;-1.616;2022-09-01T10:28:10;7.7875;;;6.075;;
29172;SDS011;16223;47.966;-1.616;2022-09-01T10:29:09;10.325;;;6.9125;;
29172;SDS011;16223;47.966;-1.616;2022-09-01T10:30:09;6.824999999999999;;;6.1875;;
29172;SDS011;16223;47.966;-1.616;2022-09-01T10:31:08;6.975;;;6.2875;;
29172;SDS011;16223;47.966;-1.616;2022-09-01T10:32:09;9.575;;;6.6875;;
29172;SDS011;16223;47.966;-1.616;2022-09-01T10:33:09;15.5125;;;5.725;;
29172;SDS011;16223;47.966;-1.616;2022-09-01T10:34:10;6.4624999999999995;;;5.225;;
29172;SDS011;16223;47.966;-1.616;2022-09-01T10:35:09;6.75;;;5.0;;
29172;SDS011;16223;47.966;-1.616;2022-09-01T10:36:08;7.35;;;4.85;;
29172;SDS011;16223;47.966;-1.616;2022-09-01T10:37:08;4.75;;;4.199999999999999;;
29172;SDS011;16223;47.966;-1.616;2022-09-01T10:38:09;14.499999999999998;;;4.4375;;
29172;SDS011;16223;47.966;-1.616;2022-09-01T10:39:09;7.125;;;4.0375;;
29172;SDS011;16223;47.966;-1.616;2022-09-01T10:40:10;4.5375000000000005;;;3.6999999999999997;;
29172;SDS011;16223;47.966;-1.616;2022-09-01T10:41:08;28.4875;;;6.6;;
29172;SDS011;16223;47.966;-1.616;2022-09-01T10:42:15;7.0375;;;5.0625;;
29172;SDS011;16223;47.966;-1.616;2022-09-01T10:43:31;7.0249999999999995;;;4.925000000000001;;
29172;SDS011;16223;47.966;-1.616;2022-09-01T10:44:08;5.1125;;;3.7625;;
29172;SDS011;16223;47.966;-1.616;2022-09-01T10:45:28;10.9375;;;6.85;;
29172;SDS011;16223;47.966;-1.616;2022-09-01T10:46:09;9.774999999999999;;;8.1375;;
29172;SDS011;16223;47.966;-1.616;2022-09-01T10:47:08;11.3;;;8.8375;;
29172;SDS011;16223;47.966;-1.616;2022-09-01T10:48:25;9.375;;;8.025;;
29172;SDS011;16223;47.966;-1.616;2022-09-01T10:49:12;11.1875;;;9.475000000000001;;
29172;SDS011;16223;47.966;-1.616;2022-09-01T10:50:21;17.2375;;;7.3999999999999995;;
29172;SDS011;16223;47.966;-1.616;2022-09-01T10:52:15;24.175;;;10.712499999999999;;
29172;SDS011;16223;47.966;-1.616;2022-09-01T10:53:09;12.825;;;10.2625;;
29172;SDS011;16223;47.966;-1.616;2022-09-01T10:54:06;15.024999999999999;;;9.375;;
29172;SDS011;16223;47.966;-1.616;2022-09-01T10:55:07;13.412500000000001;;;9.662500000000001;;
29172;SDS011;16223;47.966;-1.616;2022-09-01T10:56:07;10.1375;;;7.6875;;
29172;SDS011;16223;47.966;-1.616;2022-09-01T10:57:07;9.15;;;8.3;;
29172;SDS011;16223;47.966;-1.616;2022-09-01T10:58:11;15.1125;;;8.4375;;
29172;SDS011;16223;47.966;-1.616;2022-09-01T10:59:07;15.9125;;;7.3375;;
29172;SDS011;16223;47.966;-1.616;2022-09-01T11:01:12;7.937499999999999;;;6.125;;
29172;SDS011;16223;47.966;-1.616;2022-09-01T11:02:10;4.887499999999999;;;3.85;;
29172;SDS011;16223;47.966;-1.616;2022-09-01T11:04:12;7.4;;;5.05;;
29172;SDS011;16223;47.966;-1.616;2022-09-01T11:05:10;8.8375;;;4.612500000000001;;
29172;SDS011;16223;47.966;-1.616;2022-09-01T11:06:07;6.175;;;4.4125;;
29172;SDS011;16223;47.966;-1.616;2022-09-01T11:07:13;6.2125;;;5.199999999999999;;
29172;SDS011;16223;47.966;-1.616;2022-09-01T11:08:23;7.987500000000001;;;4.4;;
29172;SDS011;16223;47.966;-1.616;2022-09-01T11:09:18;4.0125;;;3.4749999999999996;;
29172;SDS011;16223;47.966;-1.616;2022-09-01T11:10:11;12.3;;;4.3625;;
29172;SDS011;16223;47.966;-1.616;2022-09-01T11:11:08;6.0625;;;3.8625;;
29172;SDS011;16223;47.966;-1.616;2022-09-01T11:12:11;9.8875;;;2.9625;;
29172;SDS011;16223;47.966;-1.616;2022-09-01T11:13:13;4.7875;;;4.0249999999999995;;
29172;SDS011;16223;47.966;-1.616;2022-09-01T11:14:15;7.950000000000001;;;3.65;;
29172;SDS011;16223;47.966;-1.616;2022-09-01T11:15:31;4.5375;;;3.9875000000000003;;
29172;SDS011;16223;47.966;-1.616;2022-09-01T11:16:39;3.65;;;3.0250000000000004;;
29172;SDS011;16223;47.966;-1.616;2022-09-01T11:18:09;4.0875;;;3.7249999999999996;;
29172;SDS011;16223;47.966;-1.616;2022-09-01T11:19:39;6.300000000000001;;;3.225;;
29172;SDS011;16223;47.966;-1.616;2022-09-01T11:20:07;5.05;;;4.1625000000000005;;
29172;SDS011;16223;47.966;-1.616;2022-09-01T11:21:13;3.875;;;3.2625;;
29172;SDS011;16223;47.966;-1.616;2022-09-01T11:22:08;4.05;;;3.3625;;
29172;SDS011;16223;47.966;-1.616;2022-09-01T11:23:09;4.8;;;3.7;;
29172;SDS011;16223;47.966;-1.616;2022-09-01T11:26:45;4.550000000000001;;;3.5999999999999996;;
29172;SDS011;16223;47.966;-1.616;2022-09-01T11:28:03;5.75;;;3.925;;
29172;SDS011;16223;47.966;-1.616;2022-09-01T11:28:45;4.9;;;3.325;;
29172;SDS011;16223;47.966;-1.616;2022-09-01T11:29:53;3.6375;;;3.2874999999999996;;
29172;SDS011;16223;47.966;-1.616;2022-09-01T11:30:45;6.862500000000001;;;3.9875;;
29172;SDS011;16223;47.966;-1.616;2022-09-01T11:31:45;3.3249999999999997;;;3.1000000000000005;;
29172;SDS011;16223;47.966;-1.616;2022-09-01T11:32:45;4.4875;;;3.3625;;
29172;SDS011;16223;47.966;-1.616;2022-09-01T11:33:48;4.925;;;4.2125;;
29172;SDS011;16223;47.966;-1.616;2022-09-01T11:34:45;6.025;;;3.8000000000000007;;
29172;SDS011;16223;47.966;-1.616;2022-09-01T11:35:44;4.175000000000001;;;3.7875;;
29172;SDS011;16223;47.966;-1.616;2022-09-01T11:36:48;4.7625;;;4.175;;
29172;SDS011;16223;47.966;-1.616;2022-09-01T11:37:46;7.2124999999999995;;;4.3;;
29172;SDS011;16223;47.966;-1.616;2022-09-01T11:38:46;3.9875000000000003;;;3.65;;
29172;SDS011;16223;47.966;-1.616;2022-09-01T11:39:45;5.275;;;4.5375;;
29172;SDS011;16223;47.966;-1.616;2022-09-01T11:40:52;11.5875;;;4.575;;
29172;SDS011;16223;47.966;-1.616;2022-09-01T11:41:51;5.3375;;;4.3375;;
29172;SDS011;16223;47.966;-1.616;2022-09-01T11:42:44;7.45;;;6.2125;;
29172;SDS011;16223;47.966;-1.616;2022-09-01T11:43:44;5.6625;;;4.975;;
29172;SDS011;16223;47.966;-1.616;2022-09-01T11:44:46;7.137499999999999;;;4.5;;
29172;SDS011;16223;47.966;-1.616;2022-09-01T11:45:49;9.1625;;;4.8125;;
29172;SDS011;16223;47.966;-1.616;2022-09-01T11:46:45;5.55;;;3.8625;;
29172;SDS011;16223;47.966;-1.616;2022-09-01T11:47:45;5.25;;;4.4125000000000005;;
29172;SDS011;16223;47.966;-1.616;2022-09-01T11:48:44;5.6625;;;4.7875;;
29172;SDS011;16223;47.966;-1.616;2022-09-01T11:49:47;18.400000000000002;;;4.825;;
29172;SDS011;16223;47.966;-1.616;2022-09-01T11:50:45;9.0125;;;7.0625;;
29172;SDS011;16223;47.966;-1.616;2022-09-01T11:51:45;11.337500000000002;;;7.1;;
29172;SDS011;16223;47.966;-1.616;2022-09-01T11:52:51;6.2125;;;5.275;;
29172;SDS011;16223;47.966;-1.616;2022-09-01T11:53:44;6.6;;;5.575000000000001;;
29172;SDS011;16223;47.966;-1.616;2022-09-01T11:54:55;8.5625;;;5.6499999999999995;;
29172;SDS011;16223;47.966;-1.616;2022-09-01T11:55:46;6.4375;;;5.0625;;
29172;SDS011;16223;47.966;-1.616;2022-09-01T11:56:44;5.4625;;;4.125;;
29172;SDS011;16223;47.966;-1.616;2022-09-01T11:57:44;8.112499999999999;;;4.725;;
29172;SDS011;16223;47.966;-1.616;2022-09-01T11:58:44;4.5625;;;4.0875;;
29172;SDS011;16223;47.966;-1.616;2022-09-01T11:59:44;4.8625;;;3.95;;
29172;SDS011;16223;47.966;-1.616;2022-09-01T12:00:44;9.3875;;;4.4125;;
29172;SDS011;16223;47.966;-1.616;2022-09-01T12:01:44;5.2375;;;4.5125;;
29172;SDS011;16223;47.966;-1.616;2022-09-01T12:02:45;7.65;;;5.075;;
29172;SDS011;16223;47.966;-1.616;2022-09-01T12:03:45;8.049999999999999;;;4.775;;
29172;SDS011;16223;47.966;-1.616;2022-09-01T12:04:44;10.8625;;;5.05;;
29172;SDS011;16223;47.966;-1.616;2022-09-01T12:05:44;5.8;;;4.85;;
29172;SDS011;16223;47.966;-1.616;2022-09-01T12:06:50;4.7125;;;4.0125;;
29172;SDS011;16223;47.966;-1.616;2022-09-01T12:07:45;5.775;;;4.0875;;
29172;SDS011;16223;47.966;-1.616;2022-09-01T12:08:50;8.7;;;6.35;;
29172;SDS011;16223;47.966;-1.616;2022-09-01T12:09:44;6.225;;;5.3125;;
29172;SDS011;16223;47.966;-1.616;2022-09-01T12:10:44;8.7625;;;5.525;;
29172;SDS011;16223;47.966;-1.616;2022-09-01T12:11:44;12.4;;;5.725;;
29172;SDS011;16223;47.966;-1.616;2022-09-01T12:12:45;10.55;;;4.225;;
29172;SDS011;16223;47.966;-1.616;2022-09-01T12:13:53;6.5875;;;3.875;;
29172;SDS011;16223;47.966;-1.616;2022-09-01T12:14:53;8.15;;;4.25;;
29172;SDS011;16223;47.966;-1.616;2022-09-01T12:15:51;8.425;;;5.025;;
29172;SDS011;16223;47.966;-1.616;2022-09-01T12:16:44;30.575;;;5.075;;
29172;SDS011;16223;47.966;-1.616;2022-09-01T12:17:44;6.0625;;;4.375;;
29172;SDS011;16223;47.966;-1.616;2022-09-01T12:18:45;5.862500000000001;;;4.4875;;
29172;SDS011;16223;47.966;-1.616;2022-09-01T12:19:44;7.7125;;;4.8375;;
29172;SDS011;16223;47.966;-1.616;2022-09-01T12:20:45;7.7125;;;4.425000000000001;;
29172;SDS011;16223;47.966;-1.616;2022-09-01T12:21:54;5.025;;;4.15;;
29172;SDS011;16223;47.966;-1.616;2022-09-01T12:22:44;8.2625;;;5.3;;
29172;SDS011;16223;47.966;-1.616;2022-09-01T12:23:44;8.775;;;4.925;;
29172;SDS011;16223;47.966;-1.616;2022-09-01T12:24:45;7.75;;;6.0875;;
29172;SDS011;16223;47.966;-1.616;2022-09-01T12:25:44;8.6625;;;5.675;;
29172;SDS011;16223;47.966;-1.616;2022-09-01T12:26:45;4.625;;;4.025;;
29172;SDS011;16223;47.966;-1.616;2022-09-01T12:27:44;9.6625;;;4.5625;;
29172;SDS011;16223;47.966;-1.616;2022-09-01T12:28:45;7.0125;;;4.3875;;
29172;SDS011;16223;47.966;-1.616;2022-09-01T12:29:45;4.575;;;3.95;;
29172;SDS011;16223;47.966;-1.616;2022-09-01T12:30:44;4.4125;;;3.5375;;
29172;SDS011;16223;47.966;-1.616;2022-09-01T12:31:45;8.0125;;;4.2;;
29172;SDS011;16223;47.966;-1.616;2022-09-01T12:32:45;6.6;;;3.7625;;
29172;SDS011;16223;47.966;-1.616;2022-09-01T12:33:45;4.55;;;4.025;;
29172;SDS011;16223;47.966;-1.616;2022-09-01T12:34:45;5.9;;;4.175;;
29172;SDS011;16223;47.966;-1.616;2022-09-01T12:35:45;5.387499999999999;;;4.425000000000001;;
29172;SDS011;16223;47.966;-1.616;2022-09-01T12:37:00;5.137499999999999;;;4.5375;;
29172;SDS011;16223;47.966;-1.616;2022-09-01T12:37:44;7.9125;;;5.25;;
29172;SDS011;16223;47.966;-1.616;2022-09-01T12:38:44;5.375;;;4.075;;
29172;SDS011;16223;47.966;-1.616;2022-09-01T12:39:45;5.925000000000001;;;3.8374999999999995;;
29172;SDS011;16223;47.966;-1.616;2022-09-01T12:40:45;4.5375;;;4.125;;
29172;SDS011;16223;47.966;-1.616;2022-09-01T12:41:45;8.0625;;;4.4625;;
29172;SDS011;16223;47.966;-1.616;2022-09-01T12:42:48;6.7;;;4.3625;;
29172;SDS011;16223;47.966;-1.616;2022-09-01T12:43:45;6.0875;;;4.4125;;
29172;SDS011;16223;47.966;-1.616;2022-09-01T12:44:55;3.9375;;;3.3;;
29172;SDS011;16223;47.966;-1.616;2022-09-01T12:45:45;5.675;;;4.6625;;
29172;SDS011;16223;47.966;-1.616;2022-09-01T12:46:44;6.1125;;;4.3375;;
29172;SDS011;16223;47.966;-1.616;2022-09-01T12:47:48;8.4375;;;4.6875;;
29172;SDS011;16223;47.966;-1.616;2022-09-01T12:48:44;4.7625;;;3.5375000000000005;;
29172;SDS011;16223;47.966;-1.616;2022-09-01T12:49:46;6.275;;;4.4875;;
29172;SDS011;16223;47.966;-1.616;2022-09-01T12:50:45;3.6;;;3.3375000000000004;;
29172;SDS011;16223;47.966;-1.616;2022-09-01T12:51:45;9.7625;;;4.8;;
29172;SDS011;16223;47.966;-1.616;2022-09-01T12:52:45;5.225;;;3.8625;;
29172;SDS011;16223;47.966;-1.616;2022-09-01T12:53:49;6.3875;;;3.95;;
29172;SDS011;16223;47.966;-1.616;2022-09-01T12:54:44;5.025;;;4.5125;;
29172;SDS011;16223;47.966;-1.616;2022-09-01T12:55:52;5.1125;;;4.125;;
29172;SDS011;16223;47.966;-1.616;2022-09-01T12:56:47;4.699999999999999;;;3.9625000000000004;;
29172;SDS011;16223;47.966;-1.616;2022-09-01T12:57:45;6.9125;;;3.6875;;
29172;SDS011;16223;47.966;-1.616;2022-09-01T12:58:46;7.0875;;;4.3625;;
29172;SDS011;16223;47.966;-1.616;2022-09-01T12:59:44;4.125;;;3.7874999999999996;;
29172;SDS011;16223;47.966;-1.616;2022-09-01T13:00:53;6.5625;;;4.9875;;
29172;SDS011;16223;47.966;-1.616;2022-09-01T13:01:44;5.5375;;;3.6125;;
29172;SDS011;16223;47.966;-1.616;2022-09-01T13:02:45;7.387500000000001;;;4.637499999999999;;
29172;SDS011;16223;47.966;-1.616;2022-09-01T13:04:05;8.175;;;3.95;;
29172;SDS011;16223;47.966;-1.616;2022-09-01T13:04:44;5.0375;;;3.225;;
29172;SDS011;16223;47.966;-1.616;2022-09-01T13:05:45;4.1875;;;3.5125;;
29172;SDS011;16223;47.966;-1.616;2022-09-01T13:06:44;5.7125;;;3.4125;;
29172;SDS011;16223;47.966;-1.616;2022-09-01T13:07:45;7.0;;;3.4875;;
29172;SDS011;16223;47.966;-1.616;2022-09-01T13:08:44;3.6875000000000004;;;3.2125000000000004;;
29172;SDS011;16223;47.966;-1.616;2022-09-01T13:09:44;5.75;;;4.475;;
29172;SDS011;16223;47.966;-1.616;2022-09-01T13:10:45;4.7;;;3.775;;
29172;SDS011;16223;47.966;-1.616;2022-09-01T13:11:45;3.95;;;3.475;;
29172;SDS011;16223;47.966;-1.616;2022-09-01T13:12:44;6.6;;;4.2;;
29172;SDS011;16223;47.966;-1.616;2022-09-01T13:13:44;4.112500000000001;;;3.775;;
29172;SDS011;16223;47.966;-1.616;2022-09-01T13:14:45;7.025;;;3.8875;;
29172;SDS011;16223;47.966;-1.616;2022-09-01T13:15:45;6.45;;;3.9750000000000005;;
29172;SDS011;16223;47.966;-1.616;2022-09-01T13:16:45;5.512499999999999;;;3.8874999999999997;;
29172;SDS011;16223;47.966;-1.616;2022-09-01T13:17:44;10.1125;;;3.8625000000000007;;
29172;SDS011;16223;47.966;-1.616;2022-09-01T13:18:44;7.5125;;;4.237500000000001;;
29172;SDS011;16223;47.966;-1.616;2022-09-01T13:19:44;6.675000000000001;;;4.0;;
29172;SDS011;16223;47.966;-1.616;2022-09-01T13:20:44;4.1375;;;3.8625000000000003;;
29172;SDS011;16223;47.966;-1.616;2022-09-01T13:21:44;4.375;;;3.625;;
29172;SDS011;16223;47.966;-1.616;2022-09-01T13:22:44;11.8875;;;4.725;;
29172;SDS011;16223;47.966;-1.616;2022-09-01T13:23:45;4.8875;;;4.2875000000000005;;
29172;SDS011;16223;47.966;-1.616;2022-09-01T13:24:44;5.699999999999999;;;4.1625;;
29172;SDS011;16223;47.966;-1.616;2022-09-01T13:25:45;4.6125;;;3.5875;;
29172;SDS011;16223;47.966;-1.616;2022-09-01T13:26:44;5.0625;;;3.7375;;
29172;SDS011;16223;47.966;-1.616;2022-09-01T13:27:45;6.2125;;;4.3875;;
29172;SDS011;16223;47.966;-1.616;2022-09-01T13:28:45;7.75;;;4.075;;
29172;SDS011;16223;47.966;-1.616;2022-09-01T13:29:44;5.1;;;3.65;;
29172;SDS011;16223;47.966;-1.616;2022-09-01T13:30:47;4.6375;;;4.225;;
29172;SDS011;16223;47.966;-1.616;2022-09-01T13:31:44;5.575;;;4.0625;;
29172;SDS011;16223;47.966;-1.616;2022-09-01T13:32:45;6.5874999999999995;;;4.5625;;
29172;SDS011;16223;47.966;-1.616;2022-09-01T13:33:44;5.375;;;4.85;;
29172;SDS011;16223;47.966;-1.616;2022-09-01T13:34:44;5.075;;;4.625;;
29172;SDS011;16223;47.966;-1.616;2022-09-01T13:35:44;6.6375;;;5.4125000000000005;;
29172;SDS011;16223;47.966;-1.616;2022-09-01T13:36:44;10.2;;;4.4125;;
29172;SDS011;16223;47.966;-1.616;2022-09-01T13:37:45;5.4375;;;4.987499999999999;;
29172;SDS011;16223;47.966;-1.616;2022-09-01T13:38:44;8.149999999999999;;;4.5249999999999995;;
29172;SDS011;16223;47.966;-1.616;2022-09-01T13:39:44;6.0125;;;3.9749999999999996;;
29172;SDS011;16223;47.966;-1.616;2022-09-01T13:40:45;9.8125;;;4.5;;
29172;SDS011;16223;47.966;-1.616;2022-09-01T13:41:44;9.625;;;6.1;;
29172;SDS011;16223;47.966;-1.616;2022-09-01T13:42:46;7.1;;;5.475;;
29172;SDS011;16223;47.966;-1.616;2022-09-01T13:43:44;5.7125;;;4.6499999999999995;;
29172;SDS011;16223;47.966;-1.616;2022-09-01T13:44:45;5.8375;;;5.2125;;
29172;SDS011;16223;47.966;-1.616;2022-09-01T13:45:45;5.3125;;;4.4625;;
29172;SDS011;16223;47.966;-1.616;2022-09-01T13:46:45;5.0375;;;4.3125;;
29172;SDS011;16223;47.966;-1.616;2022-09-01T13:47:45;6.225;;;5.625;;
29172;SDS011;16223;47.966;-1.616;2022-09-01T13:48:44;5.2875;;;4.25;;
29172;SDS011;16223;47.966;-1.616;2022-09-01T13:49:44;5.15;;;4.0;;
29172;SDS011;16223;47.966;-1.616;2022-09-01T13:50:45;5.525;;;4.4;;
29172;SDS011;16223;47.966;-1.616;2022-09-01T13:51:49;12.55;;;5.275;;
29172;SDS011;16223;47.966;-1.616;2022-09-01T13:52:45;4.2875;;;3.9499999999999997;;
29172;SDS011;16223;47.966;-1.616;2022-09-01T13:53:44;6.275;;;5.2375;;
29172;SDS011;16223;47.966;-1.616;2022-09-01T13:54:45;5.8;;;4.5;;
29172;SDS011;16223;47.966;-1.616;2022-09-01T13:55:44;5.275;;;4.262499999999999;;
29172;SDS011;16223;47.966;-1.616;2022-09-01T13:56:44;6.999999999999999;;;4.4750000000000005;;
29172;SDS011;16223;47.966;-1.616;2022-09-01T13:57:44;4.7875;;;4.425000000000001;;
29172;SDS011;16223;47.966;-1.616;2022-09-01T13:58:44;5.2875;;;4.825;;
29172;SDS011;16223;47.966;-1.616;2022-09-01T13:59:44;4.4;;;3.9499999999999997;;
29172;SDS011;16223;47.966;-1.616;2022-09-01T14:00:45;5.4375;;;4.574999999999999;;
29172;SDS011;16223;47.966;-1.616;2022-09-01T14:01:44;14.25;;;4.575;;
29172;SDS011;16223;47.966;-1.616;2022-09-01T14:02:45;4.1875;;;3.8499999999999996;;
29172;SDS011;16223;47.966;-1.616;2022-09-01T14:03:45;11.412500000000001;;;5.1875;;
29172;SDS011;16223;47.966;-1.616;2022-09-01T14:04:44;4.0625;;;3.7375;;
29172;SDS011;16223;47.966;-1.616;2022-09-01T14:05:45;5.775;;;4.6125;;
29172;SDS011;16223;47.966;-1.616;2022-09-01T14:06:44;5.4;;;4.7875;;
29172;SDS011;16223;47.966;-1.616;2022-09-01T14:07:45;6.4125;;;4.25;;
29172;SDS011;16223;47.966;-1.616;2022-09-01T14:08:45;4.8125;;;4.4375;;
29172;SDS011;16223;47.966;-1.616;2022-09-01T14:09:45;4.987500000000001;;;4.45;;
29172;SDS011;16223;47.966;-1.616;2022-09-01T14:10:46;5.074999999999999;;;4.5875;;